Wetterdaten: Woche 26.10.09 - 01.11.09 (KW44)
Datum Zeit Temp. Innen Temp. Aussen UV X Diff Temp. Feuchte Inne Feuchte Auss Sonnenschein Luftdruck Regen ab 0,1 Wind Sonnenschein Windben
26.10.2009 00:00 16,3 C 11,1 C 0,0 UV-I 0,0 C 62 % 87 % 0 % 1014,6 hPa 0,0 l/m 5,2 km/h (1 Bft) 0,00 h 8,3 km/h (2 Bft)
26.10.2009 01:00 16,2 C 11,1 C 0,0 UV-I 0,0 C 62 % 87 % 0 % 1014,2 hPa 0,0 l/m 4,9 km/h (1 Bft) 0,00 h 7,7 km/h (2 Bft)
26.10.2009 02:00 16,2 C 11,0 C 0,0 UV-I 0,0 C 63 % 88 % 0 % 1014,1 hPa 0,0 l/m 4,3 km/h (1 Bft) 0,00 h 6,9 km/h (2 Bft)
26.10.2009 03:00 16,1 C 11,1 C 0,0 UV-I 0,0 C 63 % 88 % 0 % 1013,8 hPa 0,0 l/m 4,5 km/h (1 Bft) 0,00 h 6,8 km/h (2 Bft)
26.10.2009 04:00 16,1 C 11,4 C 0,0 UV-I 0,0 C 63 % 87 % 0 % 1013,8 hPa 0,0 l/m 4,9 km/h (1 Bft) 0,00 h 6,5 km/h (2 Bft)
26.10.2009 05:00 16,2 C 11,5 C 0,0 UV-I 0,0 C 63 % 87 % 0 % 1013,7 hPa 0,0 l/m 3,7 km/h (1 Bft) 0,00 h 5,1 km/h (1 Bft)
26.10.2009 06:00 16,2 C 11,5 C 0,0 UV-I 0,0 C 63 % 87 % 0 % 1013,7 hPa 0,0 l/m 3,9 km/h (1 Bft) 0,00 h 6,4 km/h (2 Bft)
26.10.2009 07:00 16,0 C 11,3 C 0,1 UV-I 0,0 C 64 % 88 % 0 % 1013,8 hPa 0,0 l/m 4,8 km/h (1 Bft) 0,00 h 7,3 km/h (2 Bft)
26.10.2009 08:00 16,0 C 11,5 C 0,2 UV-I 0,1 C 64 % 88 % 2 % 1014,2 hPa 0,0 l/m 5,6 km/h (1 Bft) 0,10 h 9,1 km/h (2 Bft)
26.10.2009 09:00 16,2 C 12,2 C 0,9 UV-I 0,8 C 65 % 87 % 22 % 1014,6 hPa 0,0 l/m 5,4 km/h (1 Bft) 0,20 h 9,1 km/h (2 Bft)
26.10.2009 10:00 16,4 C 13,3 C 1,7 UV-I 2,3 C 65 % 84 % 66 % 1014,8 hPa 0,0 l/m 6,9 km/h (2 Bft) 0,43 h 10,2 km/h (2 Bft)
26.10.2009 11:00 16,7 C 14,0 C 1,4 UV-I 0,9 C 64 % 80 % 27 % 1015,2 hPa 0,0 l/m 6,7 km/h (2 Bft) 0,00 h 8,9 km/h (2 Bft)
26.10.2009 12:00 16,8 C 14,1 C 0,5 UV-I 0,1 C 63 % 79 % 3 % 1015,3 hPa 0,0 l/m 5,4 km/h (1 Bft) 0,00 h 8,1 km/h (2 Bft)
26.10.2009 13:00 16,8 C 13,5 C 1,3 UV-I 0,2 C 65 % 84 % 5 % 1015,6 hPa 0,0 l/m 4,6 km/h (1 Bft) 0,00 h 7,2 km/h (2 Bft)
26.10.2009 14:00 17,0 C 13,8 C 0,8 UV-I 0,2 C 65 % 83 % 7 % 1015,9 hPa 0,0 l/m 4,6 km/h (1 Bft) 0,00 h 6,6 km/h (2 Bft)
26.10.2009 15:00 17,0 C 13,9 C 0,4 UV-I 0,0 C 64 % 81 % 0 % 1016,4 hPa 0,0 l/m 4,4 km/h (1 Bft) 0,00 h 5,6 km/h (1 Bft)
26.10.2009 16:00 17,0 C 13,6 C 0,1 UV-I 0,0 C 64 % 82 % 0 % 1016,6 hPa 0,0 l/m 2,6 km/h (1 Bft) 0,00 h 3,8 km/h (1 Bft)
26.10.2009 17:00 16,9 C 13,3 C 0,0 UV-I 0,0 C 64 % 83 % 0 % 1017,3 hPa 0,0 l/m 2,9 km/h (1 Bft) 0,00 h 3,9 km/h (1 Bft)
26.10.2009 18:00 16,9 C 13,1 C 0,0 UV-I 0,0 C 65 % 85 % 0 % 1018,1 hPa 0,0 l/m 3,5 km/h (1 Bft) 0,00 h 5,1 km/h (1 Bft)
26.10.2009 19:00 16,9 C 12,7 C 0,0 UV-I 0,0 C 65 % 87 % 0 % 1018,5 hPa 0,0 l/m 2,0 km/h (1 Bft) 0,00 h 3,0 km/h (1 Bft)
26.10.2009 20:00 16,8 C 12,6 C 0,0 UV-I 0,0 C 66 % 88 % 0 % 1018,9 hPa 0,0 l/m 2,2 km/h (1 Bft) 0,00 h 3,7 km/h (1 Bft)
26.10.2009 21:00 16,7 C 12,3 C 0,0 UV-I 0,0 C 66 % 88 % 0 % 1019,3 hPa 0,0 l/m 1,8 km/h (1 Bft) 0,00 h 3,4 km/h (1 Bft)
26.10.2009 22:00 16,6 C 12,1 C 0,0 UV-I 0,0 C 66 % 88 % 0 % 1019,8 hPa 0,0 l/m 1,3 km/h (1 Bft) 0,00 h 2,3 km/h (1 Bft)
26.10.2009 23:00 16,5 C 12,0 C 0,0 UV-I 0,0 C 66 % 89 % 0 % 1020,1 hPa 0,0 l/m 0,8 km/h (0 Bft) 0,00 h 1,2 km/h (1 Bft)
27.10.2009 00:00 16,5 C 11,9 C 0,0 UV-I 0,0 C 66 % 90 % 0 % 1020,7 hPa 0,0 l/m 0,7 km/h (0 Bft) 0,00 h 0,6 km/h (0 Bft)
27.10.2009 01:00 16,4 C 11,8 C 0,0 UV-I 0,0 C 67 % 90 % 0 % 1020,7 hPa 0,0 l/m 0,2 km/h (0 Bft) 0,00 h 0,3 km/h (0 Bft)
27.10.2009 02:00 16,4 C 11,6 C 0,0 UV-I 0,0 C 67 % 90 % 0 % 1021,1 hPa 0,0 l/m 0,1 km/h (0 Bft) 0,00 h 0,5 km/h (0 Bft)
27.10.2009 03:00 16,3 C 11,5 C 0,0 UV-I 0,0 C 67 % 90 % 0 % 1020,7 hPa 0,0 l/m 0,1 km/h (0 Bft) 0,00 h 0,1 km/h (0 Bft)
27.10.2009 04:00 16,2 C 11,2 C 0,0 UV-I 0,0 C 67 % 91 % 0 % 1020,8 hPa 0,0 l/m 0,0 km/h (0 Bft) 0,00 h 0,0 km/h (0 Bft)
27.10.2009 05:00 16,2 C 11,1 C 0,0 UV-I 0,0 C 67 % 91 % 0 % 1021,1 hPa 0,0 l/m 0,0 km/h (0 Bft) 0,00 h 0,0 km/h (0 Bft)
27.10.2009 06:00 16,2 C 11,1 C 0,0 UV-I 0,0 C 67 % 92 % 0 % 1021,3 hPa 0,0 l/m 0,0 km/h (0 Bft) 0,00 h 0,0 km/h (0 Bft)
27.10.2009 07:00 16,4 C 10,9 C 0,0 UV-I 0,0 C 66 % 92 % 0 % 1022,0 hPa 0,0 l/m 0,0 km/h (0 Bft) 0,00 h 0,0 km/h (0 Bft)
27.10.2009 08:00 16,5 C 11,0 C 0,1 UV-I 0,0 C 66 % 92 % 1 % 1022,3 hPa 0,0 l/m 0,0 km/h (0 Bft) 0,00 h 0,0 km/h (0 Bft)
27.10.2009 09:00 16,8 C 11,4 C 0,4 UV-I 0,5 C 66 % 92 % 14 % 1022,6 hPa 0,0 l/m 0,1 km/h (0 Bft) 0,00 h 0,9 km/h (0 Bft)
27.10.2009 10:00 16,9 C 12,1 C 0,7 UV-I 0,8 C 65 % 90 % 22 % 1022,8 hPa 0,0 l/m 0,3 km/h (0 Bft) 0,00 h 0,4 km/h (0 Bft)
27.10.2009 11:00 17,0 C 13,0 C 1,1 UV-I 1,2 C 64 % 87 % 35 % 1023,2 hPa 0,0 l/m 0,3 km/h (0 Bft) 0,00 h 0,3 km/h (0 Bft)
27.10.2009 12:00 17,5 C 14,1 C 1,4 UV-I 1,7 C 63 % 81 % 50 % 1023,4 hPa 0,0 l/m 0,1 km/h (0 Bft) 0,00 h 0,3 km/h (0 Bft)
27.10.2009 13:00 17,9 C 14,6 C 0,7 UV-I 0,6 C 62 % 76 % 18 % 1023,3 hPa 0,0 l/m 0,4 km/h (0 Bft) 0,00 h 1,2 km/h (1 Bft)
27.10.2009 14:00 18,0 C 14,5 C 0,3 UV-I 0,2 C 61 % 75 % 6 % 1022,9 hPa 0,0 l/m 0,1 km/h (0 Bft) 0,00 h 0,1 km/h (0 Bft)
27.10.2009 15:00 18,0 C 14,4 C 0,1 UV-I 0,1 C 61 % 76 % 2 % 1022,6 hPa 0,0 l/m 0,1 km/h (0 Bft) 0,00 h 0,0 km/h (0 Bft)
27.10.2009 16:00 18,0 C 14,0 C 0,0 UV-I 0,0 C 61 % 78 % 0 % 1022,3 hPa 0,0 l/m 0,0 km/h (0 Bft) 0,00 h 0,0 km/h (0 Bft)
27.10.2009 17:00 17,9 C 12,9 C 0,0 UV-I 0,0 C 61 % 81 % 0 % 1022,3 hPa 0,0 l/m 0,0 km/h (0 Bft) 0,00 h 0,0 km/h (0 Bft)
27.10.2009 18:00 17,6 C 11,5 C 0,0 UV-I 0,0 C 61 % 84 % 0 % 1022,7 hPa 0,0 l/m 0,0 km/h (0 Bft) 0,00 h 0,0 km/h (0 Bft)
27.10.2009 19:00 17,2 C 10,2 C 0,0 UV-I 0,0 C 61 % 87 % 0 % 1022,2 hPa 0,0 l/m 0,0 km/h (0 Bft) 0,00 h 0,0 km/h (0 Bft)
27.10.2009 20:00 17,0 C 9,4 C 0,0 UV-I 0,0 C 61 % 89 % 0 % 1021,8 hPa 0,0 l/m 0,0 km/h (0 Bft) 0,00 h 0,0 km/h (0 Bft)
27.10.2009 21:00 16,8 C 8,8 C 0,0 UV-I 0,0 C 61 % 90 % 0 % 1021,9 hPa 0,0 l/m 0,0 km/h (0 Bft) 0,00 h 0,0 km/h (0 Bft)
27.10.2009 22:00 16,7 C 8,4 C 0,0 UV-I 0,0 C 61 % 91 % 0 % 1021,8 hPa 0,0 l/m 0,0 km/h (0 Bft) 0,00 h 0,1 km/h (0 Bft)
27.10.2009 23:00 16,5 C 8,1 C 0,0 UV-I 0,0 C 60 % 92 % 0 % 1021,2 hPa 0,0 l/m 0,1 km/h (0 Bft) 0,00 h 0,5 km/h (0 Bft)
28.10.2009 00:00 16,4 C 7,9 C 0,0 UV-I 0,0 C 60 % 92 % 0 % 1020,9 hPa 0,0 l/m 0,2 km/h (0 Bft) 0,00 h 0,4 km/h (0 Bft)
28.10.2009 01:00 16,3 C 7,5 C 0,0 UV-I 0,0 C 60 % 93 % 0 % 1020,6 hPa 0,0 l/m 0,2 km/h (0 Bft) 0,00 h 0,9 km/h (0 Bft)
28.10.2009 02:00 16,1 C 7,3 C 0,0 UV-I 0,0 C 60 % 93 % 0 % 1020,3 hPa 0,0 l/m 1,0 km/h (0 Bft) 0,00 h 2,0 km/h (1 Bft)
28.10.2009 03:00 15,9 C 7,2 C 0,0 UV-I 0,0 C 60 % 94 % 0 % 1019,9 hPa 0,0 l/m 2,1 km/h (1 Bft) 0,00 h 3,3 km/h (1 Bft)
28.10.2009 04:00 15,8 C 7,2 C 0,0 UV-I 0,0 C 60 % 94 % 0 % 1019,8 hPa 0,0 l/m 0,9 km/h (0 Bft) 0,00 h 1,2 km/h (1 Bft)
28.10.2009 05:00 15,8 C 7,1 C 0,0 UV-I 0,0 C 60 % 94 % 0 % 1019,6 hPa 0,0 l/m 0,3 km/h (0 Bft) 0,00 h 0,6 km/h (0 Bft)
28.10.2009 06:00 15,6 C 7,1 C 0,0 UV-I 0,0 C 60 % 94 % 0 % 1019,4 hPa 0,0 l/m 0,3 km/h (0 Bft) 0,00 h 0,8 km/h (0 Bft)
28.10.2009 07:00 15,7 C 7,2 C 0,0 UV-I 0,0 C 60 % 95 % 0 % 1019,7 hPa 0,0 l/m 1,2 km/h (1 Bft) 0,00 h 1,7 km/h (1 Bft)
28.10.2009 08:00 15,6 C 7,5 C 0,2 UV-I 0,1 C 60 % 95 % 2 % 1019,5 hPa 0,0 l/m 1,1 km/h (1 Bft) 0,00 h 1,8 km/h (1 Bft)
28.10.2009 09:00 15,6 C 8,4 C 0,9 UV-I 2,5 C 60 % 94 % 65 % 1019,2 hPa 0,0 l/m 3,4 km/h (1 Bft) 0,47 h 5,4 km/h (1 Bft)
28.10.2009 10:00 16,0 C 10,5 C 1,3 UV-I 4,1 C 61 % 92 % 94 % 1019,5 hPa 0,0 l/m 2,3 km/h (1 Bft) 0,80 h 3,0 km/h (1 Bft)
28.10.2009 11:00 16,5 C 11,7 C 1,8 UV-I 2,0 C 61 % 88 % 53 % 1019,8 hPa 0,0 l/m 0,9 km/h (0 Bft) 0,13 h 1,8 km/h (1 Bft)
28.10.2009 12:00 17,1 C 14,3 C 3,2 UV-I 5,8 C 60 % 82 % 100 % 1019,4 hPa 0,0 l/m 1,9 km/h (1 Bft) 1,00 h 2,3 km/h (1 Bft)
28.10.2009 13:00 17,8 C 16,7 C 2,1 UV-I 5,0 C 59 % 73 % 98 % 1019,4 hPa 0,0 l/m 2,3 km/h (1 Bft) 0,83 h 3,5 km/h (1 Bft)
28.10.2009 14:00 18,5 C 17,3 C 1,5 UV-I 2,2 C 57 % 66 % 63 % 1020,5 hPa 0,0 l/m 1,4 km/h (1 Bft) 0,17 h 2,5 km/h (1 Bft)
28.10.2009 15:00 18,4 C 16,2 C 0,7 UV-I 0,0 C 57 % 70 % 0 % 1019,0 hPa 0,0 l/m 0,4 km/h (0 Bft) 0,00 h 0,6 km/h (0 Bft)
28.10.2009 16:00 18,1 C 14,9 C 0,1 UV-I 0,0 C 59 % 76 % 0 % 1018,6 hPa 0,0 l/m 0,0 km/h (0 Bft) 0,00 h 0,0 km/h (0 Bft)
28.10.2009 17:00 17,7 C 13,1 C 0,0 UV-I 0,0 C 60 % 81 % 0 % 1018,3 hPa 0,0 l/m 0,0 km/h (0 Bft) 0,00 h 0,0 km/h (0 Bft)
28.10.2009 18:00 17,2 C 11,1 C 0,0 UV-I 0,0 C 60 % 84 % 0 % 1018,9 hPa 0,0 l/m 0,0 km/h (0 Bft) 0,00 h 0,0 km/h (0 Bft)
28.10.2009 19:00 16,8 C 9,6 C 0,0 UV-I 0,0 C 60 % 87 % 0 % 1018,7 hPa 0,0 l/m 0,0 km/h (0 Bft) 0,00 h 0,0 km/h (0 Bft)
28.10.2009 20:00 16,5 C 8,5 C 0,0 UV-I 0,0 C 61 % 89 % 0 % 1018,6 hPa 0,0 l/m 0,0 km/h (0 Bft) 0,00 h 0,0 km/h (0 Bft)
28.10.2009 21:00 16,3 C 7,6 C 0,0 UV-I 0,0 C 60 % 90 % 0 % 1018,8 hPa 0,0 l/m 0,0 km/h (0 Bft) 0,00 h 0,0 km/h (0 Bft)
28.10.2009 22:00 16,1 C 6,8 C 0,0 UV-I 0,0 C 59 % 91 % 0 % 1018,9 hPa 0,0 l/m 0,0 km/h (0 Bft) 0,00 h 0,0 km/h (0 Bft)
28.10.2009 23:00 15,9 C 6,4 C 0,0 UV-I 0,0 C 58 % 92 % 0 % 1018,9 hPa 0,0 l/m 0,0 km/h (0 Bft) 0,00 h 0,0 km/h (0 Bft)
29.10.2009 00:00 15,7 C 6,1 C 0,0 UV-I 0,1 C 58 % 92 % 0 % 1018,8 hPa 0,0 l/m 0,0 km/h (0 Bft) 0,00 h 0,0 km/h (0 Bft)
29.10.2009 01:00 15,8 C 7,3 C 0,0 UV-I 0,8 C 60 % 95 % 0 % 1019,2 hPa 0,0 l/m 0,0 km/h (0 Bft) 0,00 h 0,1 km/h (0 Bft)
29.10.2009 02:00 15,9 C 8,6 C 0,0 UV-I 0,4 C 61 % 95 % 0 % 1019,5 hPa 0,0 l/m 0,0 km/h (0 Bft) 0,00 h 0,1 km/h (0 Bft)
29.10.2009 03:00 16,2 C 9,2 C 0,0 UV-I 0,1 C 62 % 95 % 0 % 1019,8 hPa 0,0 l/m 0,0 km/h (0 Bft) 0,00 h 0,0 km/h (0 Bft)
29.10.2009 04:00 16,3 C 9,7 C 0,0 UV-I 0,0 C 63 % 95 % 0 % 1020,0 hPa 0,0 l/m 0,0 km/h (0 Bft) 0,00 h 0,0 km/h (0 Bft)
29.10.2009 05:00 16,3 C 10,2 C 0,0 UV-I 0,0 C 64 % 95 % 0 % 1020,2 hPa 0,0 l/m 0,0 km/h (0 Bft) 0,00 h 0,2 km/h (0 Bft)
29.10.2009 06:00 16,4 C 10,4 C 0,0 UV-I 0,0 C 65 % 95 % 0 % 1020,6 hPa 0,0 l/m 0,1 km/h (0 Bft) 0,00 h 0,3 km/h (0 Bft)
29.10.2009 07:00 16,4 C 10,5 C 0,0 UV-I 0,0 C 66 % 95 % 0 % 1020,9 hPa 0,2 l/m 0,0 km/h (0 Bft) 0,00 h 0,0 km/h (0 Bft)
29.10.2009 08:00 16,4 C 10,7 C 0,0 UV-I 0,0 C 66 % 95 % 0 % 1021,5 hPa 0,0 l/m 0,0 km/h (0 Bft) 0,00 h 0,0 km/h (0 Bft)
29.10.2009 09:00 16,5 C 11,0 C 0,0 UV-I 0,0 C 67 % 96 % 1 % 1021,5 hPa 0,0 l/m 0,1 km/h (0 Bft) 0,00 h 0,1 km/h (0 Bft)
29.10.2009 10:00 16,7 C 11,4 C 0,2 UV-I 0,1 C 67 % 96 % 2 % 1022,1 hPa 0,0 l/m 0,1 km/h (0 Bft) 0,00 h 0,2 km/h (0 Bft)
29.10.2009 11:00 16,9 C 12,0 C 0,5 UV-I 0,5 C 67 % 96 % 15 % 1022,4 hPa 0,0 l/m 0,0 km/h (0 Bft) 0,00 h 0,0 km/h (0 Bft)
29.10.2009 12:00 17,2 C 12,6 C 0,5 UV-I 0,8 C 67 % 95 % 22 % 1022,8 hPa 0,0 l/m 0,1 km/h (0 Bft) 0,00 h 0,6 km/h (0 Bft)
29.10.2009 13:00 17,5 C 13,1 C 0,6 UV-I 0,8 C 65 % 94 % 22 % 1023,0 hPa 0,0 l/m 0,3 km/h (0 Bft) 0,00 h 0,8 km/h (0 Bft)
29.10.2009 14:00 17,8 C 13,6 C 0,3 UV-I 0,5 C 65 % 92 % 15 % 1023,2 hPa 0,0 l/m 0,0 km/h (0 Bft) 0,00 h 0,0 km/h (0 Bft)
29.10.2009 15:00 17,8 C 13,8 C 0,0 UV-I 0,0 C 65 % 91 % 1 % 1023,6 hPa 0,0 l/m 0,0 km/h (0 Bft) 0,00 h 0,0 km/h (0 Bft)
29.10.2009 16:00 17,6 C 13,7 C 0,0 UV-I 0,0 C 67 % 91 % 0 % 1023,4 hPa 0,0 l/m 0,1 km/h (0 Bft) 0,00 h 0,1 km/h (0 Bft)
29.10.2009 17:00 17,5 C 13,3 C 0,0 UV-I 0,0 C 67 % 91 % 0 % 1023,7 hPa 0,0 l/m 0,1 km/h (0 Bft) 0,00 h 0,1 km/h (0 Bft)
29.10.2009 18:00 17,5 C 12,9 C 0,0 UV-I 0,0 C 68 % 92 % 0 % 1024,4 hPa 0,0 l/m 0,0 km/h (0 Bft) 0,00 h 0,0 km/h (0 Bft)
29.10.2009 19:00 17,4 C 12,7 C 0,0 UV-I 0,0 C 68 % 93 % 0 % 1024,8 hPa 0,0 l/m 0,0 km/h (0 Bft) 0,00 h 0,0 km/h (0 Bft)
29.10.2009 20:00 17,3 C 12,3 C 0,0 UV-I 0,0 C 68 % 93 % 0 % 1025,1 hPa 0,0 l/m 0,0 km/h (0 Bft) 0,00 h 0,0 km/h (0 Bft)
29.10.2009 21:00 17,2 C 12,0 C 0,0 UV-I 0,0 C 68 % 93 % 0 % 1025,5 hPa 0,0 l/m 0,0 km/h (0 Bft) 0,00 h 0,0 km/h (0 Bft)
29.10.2009 22:00 17,2 C 11,8 C 0,0 UV-I 0,0 C 68 % 94 % 0 % 1025,5 hPa 0,0 l/m 0,0 km/h (0 Bft) 0,00 h 0,0 km/h (0 Bft)
29.10.2009 23:00 17,3 C 11,3 C 0,0 UV-I 0,0 C 67 % 94 % 0 % 1025,4 hPa 0,0 l/m 0,0 km/h (0 Bft) 0,00 h 0,0 km/h (0 Bft)
30.10.2009 00:00 17,1 C 10,1 C 0,0 UV-I 0,0 C 66 % 93 % 0 % 1025,5 hPa 0,0 l/m 0,0 km/h (0 Bft) 0,00 h 0,0 km/h (0 Bft)
30.10.2009 01:00 16,7 C 8,8 C 0,0 UV-I 0,0 C 64 % 93 % 0 % 1025,3 hPa 0,0 l/m 0,0 km/h (0 Bft) 0,00 h 0,0 km/h (0 Bft)
30.10.2009 02:00 16,6 C 8,2 C 0,0 UV-I 0,1 C 64 % 94 % 0 % 1025,8 hPa 0,0 l/m 0,0 km/h (0 Bft) 0,00 h 0,0 km/h (0 Bft)
30.10.2009 03:00 16,6 C 8,4 C 0,0 UV-I 0,0 C 64 % 95 % 0 % 1026,0 hPa 0,0 l/m 0,0 km/h (0 Bft) 0,00 h 0,0 km/h (0 Bft)
30.10.2009 04:00 16,6 C 8,5 C 0,0 UV-I 0,1 C 64 % 96 % 0 % 1026,2 hPa 0,0 l/m 0,0 km/h (0 Bft) 0,00 h 0,0 km/h (0 Bft)
30.10.2009 05:00 16,7 C 8,8 C 0,0 UV-I 0,0 C 64 % 96 % 0 % 1026,4 hPa 0,0 l/m 0,0 km/h (0 Bft) 0,00 h 0,0 km/h (0 Bft)
30.10.2009 06:00 16,7 C 8,3 C 0,0 UV-I 0,0 C 64 % 95 % 0 % 1026,8 hPa 0,0 l/m 0,0 km/h (0 Bft) 0,00 h 0,0 km/h (0 Bft)
30.10.2009 07:00 16,6 C 7,4 C 0,0 UV-I 0,0 C 63 % 95 % 0 % 1026,7 hPa 0,1 l/m 0,0 km/h (0 Bft) 0,00 h 0,0 km/h (0 Bft)
30.10.2009 08:00 16,3 C 6,9 C 0,2 UV-I 0,2 C 61 % 95 % 6 % 1027,0 hPa 0,0 l/m 0,0 km/h (0 Bft) 0,07 h 0,0 km/h (0 Bft)
30.10.2009 09:00 16,3 C 7,5 C 0,7 UV-I 5,3 C 62 % 96 % 98 % 1027,1 hPa 0,0 l/m 0,0 km/h (0 Bft) 0,93 h 0,2 km/h (0 Bft)
30.10.2009 10:00 16,7 C 9,7 C 1,2 UV-I 7,7 C 63 % 96 % 100 % 1027,4 hPa 0,0 l/m 0,7 km/h (0 Bft) 0,97 h 1,9 km/h (1 Bft)
30.10.2009 11:00 16,9 C 12,6 C 2,5 UV-I 6,3 C 63 % 91 % 100 % 1027,7 hPa 0,0 l/m 2,0 km/h (1 Bft) 0,87 h 3,5 km/h (1 Bft)
30.10.2009 12:00 17,2 C 14,4 C 2,6 UV-I 4,5 C 61 % 82 % 99 % 1027,8 hPa 0,0 l/m 2,0 km/h (1 Bft) 0,73 h 4,2 km/h (1 Bft)
30.10.2009 13:00 18,0 C 16,3 C 2,1 UV-I 5,1 C 59 % 72 % 100 % 1027,1 hPa 0,0 l/m 2,9 km/h (1 Bft) 0,78 h 4,3 km/h (1 Bft)
30.10.2009 14:00 18,9 C 16,7 C 1,4 UV-I 4,1 C 57 % 68 % 100 % 1028,6 hPa 0,0 l/m 2,7 km/h (1 Bft) 1,00 h 4,6 km/h (1 Bft)
30.10.2009 15:00 18,8 C 16,0 C 0,6 UV-I 0,9 C 57 % 68 % 25 % 1026,4 hPa 0,0 l/m 1,1 km/h (0 Bft) 0,10 h 2,2 km/h (1 Bft)
30.10.2009 16:00 18,3 C 14,9 C 0,1 UV-I 0,0 C 57 % 72 % 0 % 1026,2 hPa 0,0 l/m 0,1 km/h (0 Bft) 0,00 h 0,1 km/h (0 Bft)
30.10.2009 17:00 17,5 C 13,1 C 0,0 UV-I 0,0 C 58 % 77 % 0 % 1025,8 hPa 0,0 l/m 0,0 km/h (0 Bft) 0,00 h 0,0 km/h (0 Bft)
30.10.2009 18:00 16,9 C 11,1 C 0,0 UV-I 0,0 C 59 % 82 % 0 % 1025,8 hPa 0,0 l/m 0,0 km/h (0 Bft) 0,00 h 0,2 km/h (0 Bft)
30.10.2009 19:00 16,9 C 10,5 C 0,0 UV-I 0,0 C 59 % 84 % 0 % 1025,9 hPa 0,0 l/m 0,3 km/h (0 Bft) 0,00 h 0,7 km/h (0 Bft)
30.10.2009 20:00 17,0 C 10,4 C 0,0 UV-I 0,0 C 59 % 84 % 0 % 1025,7 hPa 0,0 l/m 0,8 km/h (0 Bft) 0,00 h 0,7 km/h (0 Bft)
30.10.2009 21:00 16,8 C 9,7 C 0,0 UV-I 0,0 C 58 % 85 % 0 % 1025,8 hPa 0,0 l/m 0,4 km/h (0 Bft) 0,00 h 0,9 km/h (0 Bft)
30.10.2009 22:00 16,7 C 8,8 C 0,0 UV-I 0,0 C 58 % 88 % 0 % 1025,9 hPa 0,0 l/m 0,1 km/h (0 Bft) 0,00 h 0,1 km/h (0 Bft)
30.10.2009 23:00 16,6 C 8,5 C 0,0 UV-I 0,0 C 58 % 89 % 0 % 1025,9 hPa 0,0 l/m 0,6 km/h (0 Bft) 0,00 h 2,2 km/h (1 Bft)
31.10.2009 00:00 16,5 C 8,4 C 0,0 UV-I 0,0 C 58 % 89 % 0 % 1025,6 hPa 0,0 l/m 1,1 km/h (1 Bft) 0,00 h 3,0 km/h (1 Bft)
31.10.2009 01:00 16,3 C 8,1 C 0,0 UV-I 0,0 C 57 % 89 % 0 % 1025,2 hPa 0,0 l/m 0,5 km/h (0 Bft) 0,00 h 1,3 km/h (1 Bft)
31.10.2009 02:00 16,2 C 7,6 C 0,0 UV-I 0,0 C 57 % 90 % 0 % 1024,8 hPa 0,0 l/m 0,6 km/h (0 Bft) 0,00 h 2,1 km/h (1 Bft)
31.10.2009 03:00 16,2 C 7,6 C 0,0 UV-I 0,0 C 57 % 90 % 0 % 1024,6 hPa 0,0 l/m 1,2 km/h (1 Bft) 0,00 h 3,2 km/h (1 Bft)
31.10.2009 04:00 16,1 C 7,7 C 0,0 UV-I 0,0 C 57 % 90 % 0 % 1024,7 hPa 0,0 l/m 0,9 km/h (0 Bft) 0,00 h 2,1 km/h (1 Bft)
31.10.2009 05:00 16,0 C 7,8 C 0,0 UV-I 0,0 C 56 % 89 % 0 % 1025,0 hPa 0,0 l/m 1,7 km/h (1 Bft) 0,00 h 2,9 km/h (1 Bft)
31.10.2009 06:00 16,0 C 7,8 C 0,0 UV-I 0,0 C 56 % 89 % 0 % 1024,9 hPa 0,0 l/m 2,1 km/h (1 Bft) 0,00 h 3,2 km/h (1 Bft)
31.10.2009 07:00 15,9 C 7,7 C 0,0 UV-I 0,0 C 56 % 89 % 0 % 1025,0 hPa 0,0 l/m 2,3 km/h (1 Bft) 0,00 h 3,9 km/h (1 Bft)
31.10.2009 08:00 15,8 C 7,8 C 0,0 UV-I 0,0 C 56 % 89 % 0 % 1025,0 hPa 0,0 l/m 3,1 km/h (1 Bft) 0,00 h 4,6 km/h (1 Bft)
31.10.2009 09:00 15,8 C 8,2 C 0,1 UV-I 0,2 C 56 % 87 % 6 % 1025,0 hPa 0,0 l/m 4,1 km/h (1 Bft) 0,00 h 5,8 km/h (2 Bft)
31.10.2009 10:00 15,8 C 8,9 C 0,8 UV-I 0,7 C 55 % 85 % 20 % 1025,0 hPa 0,0 l/m 5,0 km/h (1 Bft) 0,00 h 7,3 km/h (2 Bft)
31.10.2009 11:00 16,0 C 9,8 C 1,6 UV-I 1,4 C 55 % 82 % 39 % 1025,2 hPa 0,0 l/m 5,3 km/h (1 Bft) 0,20 h 7,7 km/h (2 Bft)
31.10.2009 12:00 16,3 C 10,9 C 1,6 UV-I 1,3 C 54 % 78 % 37 % 1024,7 hPa 0,0 l/m 6,1 km/h (2 Bft) 0,10 h 8,9 km/h (2 Bft)
31.10.2009 13:00 16,7 C 12,0 C 2,1 UV-I 2,2 C 54 % 75 % 55 % 1024,2 hPa 0,0 l/m 6,0 km/h (2 Bft) 0,30 h 7,0 km/h (2 Bft)
31.10.2009 14:00 17,3 C 12,9 C 1,5 UV-I 2,3 C 53 % 70 % 60 % 1024,6 hPa 0,0 l/m 3,8 km/h (1 Bft) 0,50 h 5,2 km/h (1 Bft)
31.10.2009 15:00 18,2 C 14,0 C 0,7 UV-I 2,6 C 50 % 66 % 67 % 1024,8 hPa 0,0 l/m 5,3 km/h (1 Bft) 0,60 h 8,0 km/h (2 Bft)
31.10.2009 16:00 17,8 C 12,7 C 0,0 UV-I 0,0 C 49 % 67 % 0 % 1023,6 hPa 0,0 l/m 2,9 km/h (1 Bft) 0,00 h 4,0 km/h (1 Bft)
31.10.2009 17:00 17,1 C 11,1 C 0,0 UV-I 0,0 C 50 % 71 % 0 % 1023,2 hPa 0,0 l/m 1,8 km/h (1 Bft) 0,00 h 2,9 km/h (1 Bft)
31.10.2009 18:00 16,7 C 10,3 C 0,0 UV-I 0,0 C 51 % 74 % 0 % 1023,2 hPa 0,0 l/m 1,5 km/h (1 Bft) 0,00 h 2,7 km/h (1 Bft)
31.10.2009 19:00 16,4 C 9,7 C 0,0 UV-I 0,0 C 51 % 76 % 0 % 1022,7 hPa 0,0 l/m 3,0 km/h (1 Bft) 0,00 h 4,2 km/h (1 Bft)
31.10.2009 20:00 16,1 C 9,5 C 0,0 UV-I 0,0 C 51 % 78 % 0 % 1022,6 hPa 0,0 l/m 3,7 km/h (1 Bft) 0,00 h 5,4 km/h (1 Bft)
31.10.2009 21:00 15,8 C 9,5 C 0,0 UV-I 0,0 C 52 % 78 % 0 % 1022,1 hPa 0,0 l/m 5,3 km/h (1 Bft) 0,00 h 7,1 km/h (2 Bft)
31.10.2009 22:00 15,5 C 9,0 C 0,0 UV-I 0,0 C 52 % 78 % 0 % 1021,8 hPa 0,0 l/m 4,6 km/h (1 Bft) 0,00 h 6,1 km/h (2 Bft)
31.10.2009 23:00 15,2 C 8,6 C 0,0 UV-I 0,0 C 53 % 80 % 0 % 1021,7 hPa 0,0 l/m 4,1 km/h (1 Bft) 0,00 h 5,6 km/h (1 Bft)
01.11.2009 00:00 15,3 C 8,7 C 0,0 UV-I 0,0 C 54 % 82 % 0 % 1021,2 hPa 0,0 l/m 4,2 km/h (1 Bft) 0,00 h 5,0 km/h (1 Bft)
01.11.2009 01:00 15,6 C 9,0 C 0,0 UV-I 0,0 C 54 % 82 % 0 % 1021,1 hPa 0,0 l/m 3,7 km/h (1 Bft) 0,00 h 5,2 km/h (1 Bft)
01.11.2009 02:00 15,7 C 9,1 C 0,0 UV-I 0,0 C 54 % 83 % 0 % 1020,8 hPa 0,0 l/m 2,6 km/h (1 Bft) 0,00 h 3,7 km/h (1 Bft)
01.11.2009 03:00 15,6 C 9,3 C 0,0 UV-I 0,0 C 55 % 83 % 0 % 1020,1 hPa 0,0 l/m 3,2 km/h (1 Bft) 0,00 h 3,9 km/h (1 Bft)
01.11.2009 04:00 15,6 C 9,2 C 0,0 UV-I 0,0 C 56 % 85 % 0 % 1019,5 hPa 0,0 l/m 4,6 km/h (1 Bft) 0,00 h 6,8 km/h (2 Bft)
01.11.2009 05:00 15,6 C 8,8 C 0,0 UV-I 0,0 C 58 % 89 % 0 % 1018,9 hPa 0,0 l/m 3,8 km/h (1 Bft) 0,00 h 5,5 km/h (1 Bft)
01.11.2009 06:00 15,6 C 8,5 C 0,0 UV-I 0,0 C 59 % 91 % 0 % 1018,1 hPa 0,0 l/m 2,8 km/h (1 Bft) 0,00 h 4,5 km/h (1 Bft)
01.11.2009 07:00 15,5 C 8,3 C 0,0 UV-I 0,0 C 60 % 92 % 0 % 1017,4 hPa 0,0 l/m 3,9 km/h (1 Bft) 0,00 h 5,9 km/h (2 Bft)
01.11.2009 08:00 15,4 C 8,3 C 0,0 UV-I 0,0 C 60 % 92 % 0 % 1016,4 hPa 0,0 l/m 4,5 km/h (1 Bft) 0,00 h 6,2 km/h (2 Bft)
01.11.2009 09:00 15,4 C 8,8 C 0,0 UV-I 0,0 C 61 % 93 % 0 % 1015,7 hPa 0,0 l/m 3,3 km/h (1 Bft) 0,00 h 4,8 km/h (1 Bft)
01.11.2009 10:00 15,8 C 9,6 C 0,7 UV-I 0,8 C 61 % 93 % 23 % 1014,7 hPa 0,1 l/m 3,8 km/h (1 Bft) 0,00 h 6,5 km/h (2 Bft)
01.11.2009 11:00 16,2 C 12,0 C 2,7 UV-I 4,0 C 61 % 89 % 98 % 1013,3 hPa 0,0 l/m 5,2 km/h (1 Bft) 0,70 h 8,9 km/h (2 Bft)
01.11.2009 12:00 16,7 C 13,7 C 1,8 UV-I 2,0 C 61 % 84 % 58 % 1011,7 hPa 0,0 l/m 5,5 km/h (1 Bft) 0,07 h 7,0 km/h (2 Bft)
01.11.2009 13:00 17,1 C 14,6 C 0,6 UV-I 0,5 C 62 % 83 % 14 % 1009,8 hPa 0,0 l/m 4,5 km/h (1 Bft) 0,00 h 6,8 km/h (2 Bft)
01.11.2009 14:00 17,3 C 15,3 C 0,7 UV-I 0,5 C 63 % 82 % 16 % 1007,8 hPa 0,0 l/m 6,2 km/h (2 Bft) 0,00 h 9,8 km/h (2 Bft)
01.11.2009 15:00 17,6 C 15,3 C 0,2 UV-I 0,2 C 63 % 81 % 5 % 1006,4 hPa 0,0 l/m 8,2 km/h (2 Bft) 0,00 h 12,1 km/h (2 Bft)
01.11.2009 16:00 17,2 C 14,2 C 0,0 UV-I 0,0 C 64 % 84 % 0 % 1004,9 hPa 2,7 l/m 5,7 km/h (1 Bft) 0,00 h 7,4 km/h (2 Bft)
01.11.2009 17:00 16,9 C 13,0 C 0,0 UV-I 0,0 C 67 % 90 % 0 % 1003,5 hPa 1,8 l/m 8,4 km/h (2 Bft) 0,00 h 10,6 km/h (2 Bft)
01.11.2009 18:00 16,6 C 12,2 C 0,0 UV-I 0,0 C 68 % 92 % 0 % 1002,5 hPa 2,2 l/m 9,6 km/h (2 Bft) 0,00 h 12,9 km/h (3 Bft)
01.11.2009 19:00 16,4 C 11,9 C 0,0 UV-I 0,0 C 69 % 93 % 0 % 1001,5 hPa 3,0 l/m 9,2 km/h (2 Bft) 0,00 h 12,6 km/h (3 Bft)
01.11.2009 20:00 16,2 C 11,9 C 0,0 UV-I 0,0 C 70 % 94 % 0 % 1000,5 hPa 2,4 l/m 8,3 km/h (2 Bft) 0,00 h 11,6 km/h (2 Bft)
01.11.2009 21:00 16,3 C 11,9 C 0,0 UV-I 0,0 C 70 % 94 % 0 % 999,4 hPa 0,9 l/m 7,1 km/h (2 Bft) 0,00 h 8,8 km/h (2 Bft)
01.11.2009 22:00 16,3 C 12,0 C 0,0 UV-I 0,0 C 71 % 95 % 0 % 998,8 hPa 2,0 l/m 7,4 km/h (2 Bft) 0,00 h 10,2 km/h (2 Bft)
01.11.2009 23:00 16,3 C 12,2 C 0,0 UV-I 0,0 C 71 % 95 % 0 % 998,4 hPa 5,4 l/m 5,3 km/h (1 Bft) 0,00 h 5,9 km/h (2 Bft)
Min-Datum _ 31.10.09 29.10.09 26.10.09 26.10.09 31.10.09 31.10.09 26.10.09 01.11.09 - 27.10.09 - 26.10.09
_ Min-Zeit 23:54 00:16 00:00 00:00 15:40 15:38 00:00 22:56 - 00:36 - 00:18
Minimum _ 15,1 C 6,0 C 0,0 UV-I 0,0 C 49 % 64 % 0 % 998,1 hPa - 0,0 km/h (0 Bft) - 0,0 km/h (0 Bft)
Max-Datum _ 30.10.09 28.10.09 28.10.09 30.10.09 01.11.09 30.10.09 26.10.09 30.10.09 01.11.09 01.11.09 26.10.09 01.11.09
_ Max-Zeit 14:36 14:14 12:10 10:22 22:20 10:28 10:04 14:16 23:36 18:04 08:28 18:10
Maximum _ 19,1 C 17,6 C 5,0 UV-I 8,5 C 71 % 97 % 100 % 1029,1 hPa 5,4 l/m 12,3 km/h
O-NO (3 Bft)
0,03 h 32,2 km/h
O-NO (5 Bft)
Durchschnitt _ 16,6 C 10,9 C 0,3 UV-I 0,5 C 61 % 87 % 12 % 1020,2 hPa #20,7 l/m 2,0 km/h (1 Bft) #12:03 h 3,0 km/h (1 Bft)
© 2012 W. Hausmann